Time;durP1;ratioP1;P1;durP2;ratioP2;P2;SDS_P1;SDS_P2;PMS_P1;PMS_P2;Temp;Humidity;BMP_temperature;BMP_pressure;BME280_temperature;BME280_humidity;BME280_pressure;Samples;Min_cycle;Max_cycle;Signal;HPM_P1;HPM_P2
2021/03/23 00:01:58;;;;;;;;;;;18.10;50.30;;;;;;5062235;28;19912;-71
2021/03/23 00:04:24;;;;;;;;;;;18.10;50.10;;;;;;5065581;28;19995;-71
2021/03/23 00:06:50;;;;;;;;;;;18.00;50.40;;;;;;5063659;28;19986;-71
2021/03/23 00:09:16;;;;;;;;;;;18.00;50.10;;;;;;5060314;28;20504;-71
2021/03/23 00:11:42;;;;;;;;;;;18.20;50.10;;;;;;5065380;28;19916;-70
2021/03/23 00:14:10;;;;;;;;;;;18.10;49.80;;;;;;5065274;28;19908;-71
2021/03/23 00:16:41;;;;;;;;;;;18.20;49.90;;;;;;5065095;28;19995;-70
2021/03/23 00:19:08;;;;;;;;;;;18.10;49.90;;;;;;5063489;28;19908;-71
2021/03/23 00:21:35;;;;;;;;;;;18.00;50.00;;;;;;5062386;28;20366;-70
2021/03/23 00:24:01;;;;;;;;;;;17.80;50.60;;;;;;5063468;28;20296;-71
2021/03/23 00:26:27;;;;;;;;;;;18.10;49.60;;;;;;5062975;28;19985;-70
2021/03/23 00:28:54;;;;;;;;;;;17.90;49.90;;;;;;5060002;28;19908;-70
2021/03/23 00:31:22;;;;;;;;;;;18.00;49.30;;;;;;5066119;28;19998;-71
2021/03/23 00:33:48;;;;;;;;;;;17.80;50.20;;;;;;5063794;28;19912;-70
2021/03/23 00:36:19;;;;;;;;;;;17.70;50.80;;;;;;5063223;28;19912;-71
2021/03/23 00:38:46;;;;;;;;;;;17.60;51.10;;;;;;5065784;28;20003;-72
2021/03/23 00:41:12;;;;;;;;;;;17.40;51.50;;;;;;5063087;28;19916;-70
2021/03/23 00:43:39;;;;;;;;;;;17.30;51.60;;;;;;5065116;28;19912;-70
2021/03/23 00:46:05;;;;;;;;;;;17.40;51.30;;;;;;5062916;28;19909;-70
2021/03/23 00:48:31;;;;;;;;;;;17.40;51.80;;;;;;5057456;28;20317;-71
2021/03/23 00:50:57;;;;;;;;;;;17.20;51.70;;;;;;5059257;28;20685;-73
2021/03/23 00:53:23;;;;;;;;;;;17.30;51.60;;;;;;5059291;28;19917;-71
2021/03/23 00:55:49;;;;;;;;;;;17.20;51.50;;;;;;5063463;28;19904;-70
2021/03/23 00:58:15;;;;;;;;;;;17.20;51.60;;;;;;5062576;28;20338;-71
2021/03/23 01:00:42;;;;;;;;;;;17.20;51.80;;;;;;5064846;28;19909;-71
2021/03/23 01:03:08;;;;;;;;;;;17.40;50.60;;;;;;5065115;28;19920;-71
2021/03/23 01:05:35;;;;;;;;;;;17.40;50.90;;;;;;5061138;28;19923;-71
2021/03/23 01:08:01;;;;;;;;;;;17.30;50.70;;;;;;5063866;28;20058;-71
2021/03/23 01:10:28;;;;;;;;;;;17.20;51.50;;;;;;5062498;28;19908;-71
2021/03/23 01:12:55;;;;;;;;;;;17.10;51.50;;;;;;5062334;28;19981;-71
2021/03/23 01:15:24;;;;;;;;;;;17.10;52.30;;;;;;5064591;28;19912;-71
2021/03/23 01:17:50;;;;;;;;;;;16.80;52.20;;;;;;5062485;28;19970;-71
2021/03/23 01:20:18;;;;;;;;;;;16.90;52.40;;;;;;5061376;28;20828;-73
2021/03/23 01:22:44;;;;;;;;;;;17.00;51.90;;;;;;5062815;28;20516;-72
2021/03/23 01:25:10;;;;;;;;;;;17.10;51.70;;;;;;5062179;28;20354;-71
2021/03/23 01:27:36;;;;;;;;;;;16.90;51.90;;;;;;5062198;28;19970;-71
2021/03/23 01:30:03;;;;;;;;;;;16.90;51.70;;;;;;5061016;28;19962;-71
2021/03/23 01:32:29;;;;;;;;;;;16.70;52.40;;;;;;5058778;28;19912;-71
2021/03/23 01:34:55;;;;;;;;;;;16.80;52.20;;;;;;5058046;28;19916;-72
2021/03/23 01:37:22;;;;;;;;;;;16.70;52.00;;;;;;5056015;28;19909;-71
2021/03/23 01:39:48;;;;;;;;;;;16.70;52.30;;;;;;5062029;28;19912;-71
2021/03/23 01:42:18;;;;;;;;;;;16.60;52.30;;;;;;5063823;28;19974;-71
2021/03/23 01:44:45;;;;;;;;;;;16.60;52.50;;;;;;5061180;28;19912;-71
2021/03/23 01:47:12;;;;;;;;;;;16.60;52.40;;;;;;5060910;28;20367;-72
2021/03/23 01:49:43;;;;;;;;;;;16.60;52.30;;;;;;5059095;28;20401;-72
2021/03/23 01:52:11;;;;;;;;;;;16.60;52.30;;;;;;5064321;28;20250;-72
2021/03/23 01:54:59;;;;;;;;;;;16.50;52.30;;;;;;5061423;28;19908;-71
2021/03/23 01:57:26;;;;;;;;;;;16.40;52.70;;;;;;5058773;28;20019;-71
2021/03/23 01:59:54;;;;;;;;;;;16.30;52.80;;;;;;5055963;28;19912;-72
2021/03/23 02:02:21;;;;;;;;;;;16.10;53.60;;;;;;5063661;28;19966;-71
2021/03/23 02:04:47;;;;;;;;;;;16.00;53.90;;;;;;5064152;28;20008;-72
2021/03/23 02:07:13;;;;;;;;;;;16.10;54.00;;;;;;5059305;28;20349;-72
2021/03/23 02:09:39;;;;;;;;;;;16.00;53.90;;;;;;5065112;28;19904;-72
2021/03/23 02:12:07;;;;;;;;;;;15.80;54.10;;;;;;5068553;28;19905;-72
2021/03/23 02:14:35;;;;;;;;;;;15.80;54.10;;;;;;5068213;28;19905;-72
2021/03/23 02:17:21;;;;;;;;;;;15.80;54.40;;;;;;5066486;28;19909;-72
2021/03/23 02:19:48;;;;;;;;;;;15.80;54.40;;;;;;5067802;28;19909;-73
2021/03/23 02:22:20;;;;;;;;;;;15.70;54.60;;;;;;5067030;28;19912;-72
2021/03/23 02:24:46;;;;;;;;;;;15.70;54.50;;;;;;5067366;28;19912;-73
2021/03/23 02:27:12;;;;;;;;;;;15.50;55.20;;;;;;5067044;28;20349;-71
2021/03/23 02:29:38;;;;;;;;;;;15.40;54.60;;;;;;5067219;28;19909;-71
2021/03/23 02:32:04;;;;;;;;;;;15.40;55.30;;;;;;5063891;28;19915;-72
2021/03/23 02:34:30;;;;;;;;;;;15.20;56.20;;;;;;5058721;28;19912;-73
2021/03/23 02:36:56;;;;;;;;;;;15.10;56.40;;;;;;5066107;28;20334;-73
2021/03/23 02:39:27;;;;;;;;;;;15.30;55.70;;;;;;5063057;28;19913;-73
2021/03/23 02:41:54;;;;;;;;;;;15.10;56.40;;;;;;5063018;28;19978;-72
2021/03/23 02:44:20;;;;;;;;;;;15.10;56.90;;;;;;5067318;28;19913;-73
2021/03/23 02:46:46;;;;;;;;;;;15.10;56.40;;;;;;5065796;28;20254;-73
2021/03/23 02:49:12;;;;;;;;;;;15.00;56.90;;;;;;5067342;28;19908;-73
2021/03/23 02:51:39;;;;;;;;;;;15.00;57.00;;;;;;5064668;28;19913;-72
2021/03/23 02:54:05;;;;;;;;;;;14.90;57.60;;;;;;5066887;28;20326;-72
2021/03/23 02:56:31;;;;;;;;;;;14.80;58.00;;;;;;5068210;28;19940;-73
2021/03/23 02:58:57;;;;;;;;;;;15.00;58.10;;;;;;5059888;28;19908;-75
2021/03/23 03:01:23;;;;;;;;;;;15.10;57.20;;;;;;5066373;28;20027;-72
2021/03/23 03:03:49;;;;;;;;;;;14.90;58.30;;;;;;5067943;28;19904;-73
2021/03/23 03:06:15;;;;;;;;;;;14.80;58.30;;;;;;5064177;28;19908;-73
2021/03/23 03:08:42;;;;;;;;;;;14.80;58.10;;;;;;5064283;28;19909;-73
2021/03/23 03:11:08;;;;;;;;;;;14.80;58.30;;;;;;5068532;28;20297;-74
2021/03/23 03:13:34;;;;;;;;;;;14.50;59.20;;;;;;5073834;28;19941;-73
2021/03/23 03:16:01;;;;;;;;;;;14.50;59.10;;;;;;5071334;28;19912;-73
2021/03/23 03:18:27;;;;;;;;;;;14.40;59.50;;;;;;5064449;28;19904;-73
2021/03/23 03:20:54;;;;;;;;;;;14.30;59.90;;;;;;5067366;28;20301;-71
2021/03/23 03:23:20;;;;;;;;;;;14.50;58.60;;;;;;5067111;28;19912;-72
2021/03/23 03:25:47;;;;;;;;;;;14.60;59.30;;;;;;5067256;28;20297;-71
2021/03/23 03:28:13;;;;;;;;;;;14.50;59.30;;;;;;5064918;28;19958;-70
2021/03/23 03:30:40;;;;;;;;;;;14.50;59.10;;;;;;5067224;28;19912;-71
2021/03/23 03:33:08;;;;;;;;;;;14.50;58.70;;;;;;5065628;28;19958;-73
2021/03/23 03:35:35;;;;;;;;;;;14.60;58.90;;;;;;5067390;28;19908;-71
2021/03/23 03:38:02;;;;;;;;;;;14.70;58.90;;;;;;5067708;28;19958;-71
2021/03/23 03:40:39;;;;;;;;;;;14.70;58.30;;;;;;5066178;28;19916;-71
2021/03/23 03:43:06;;;;;;;;;;;14.60;58.80;;;;;;5060124;28;20489;-71
2021/03/23 03:45:32;;;;;;;;;;;14.70;58.80;;;;;;5066053;28;19908;-71
2021/03/23 03:47:58;;;;;;;;;;;14.50;59.30;;;;;;5066680;28;19930;-71
2021/03/23 03:50:25;;;;;;;;;;;14.50;58.80;;;;;;5064902;28;19916;-71
2021/03/23 03:52:52;;;;;;;;;;;14.50;59.50;;;;;;5064845;28;19908;-71
2021/03/23 03:55:19;;;;;;;;;;;14.50;59.10;;;;;;5043224;28;19916;-73
2021/03/23 03:57:45;;;;;;;;;;;14.60;59.80;;;;;;5057940;28;19920;-71
2021/03/23 04:00:12;;;;;;;;;;;14.50;59.30;;;;;;5059919;28;19917;-72
2021/03/23 04:02:38;;;;;;;;;;;14.40;60.20;;;;;;5054884;28;19912;-72
2021/03/23 04:05:05;;;;;;;;;;;14.40;60.00;;;;;;5064051;28;19977;-72
2021/03/23 04:07:31;;;;;;;;;;;14.20;61.10;;;;;;5062028;28;19927;-71
2021/03/23 04:09:57;;;;;;;;;;;14.10;61.10;;;;;;5059704;28;19943;-71
2021/03/23 04:12:23;;;;;;;;;;;14.10;61.40;;;;;;5061207;28;20307;-71
2021/03/23 04:14:50;;;;;;;;;;;14.30;60.80;;;;;;5062489;28;19940;-71
2021/03/23 04:17:16;;;;;;;;;;;14.20;61.50;;;;;;5063321;28;19909;-71
2021/03/23 04:19:42;;;;;;;;;;;14.40;61.00;;;;;;5058663;28;19966;-71
2021/03/23 04:22:08;;;;;;;;;;;14.50;60.70;;;;;;5063290;28;19924;-71
2021/03/23 04:24:34;;;;;;;;;;;14.30;61.60;;;;;;5064454;28;19909;-71
2021/03/23 04:27:00;;;;;;;;;;;14.00;62.00;;;;;;5060539;28;19913;-71
2021/03/23 04:29:26;;;;;;;;;;;14.20;62.50;;;;;;5058191;28;19921;-72
2021/03/23 04:31:52;;;;;;;;;;;14.50;60.90;;;;;;5064822;28;19999;-72
2021/03/23 04:34:18;;;;;;;;;;;14.30;60.90;;;;;;5061880;28;19951;-71
2021/03/23 04:36:44;;;;;;;;;;;14.10;62.10;;;;;;5064272;28;19960;-72
2021/03/23 04:39:11;;;;;;;;;;;14.10;62.00;;;;;;5060185;28;19913;-72
2021/03/23 04:41:38;;;;;;;;;;;14.10;61.80;;;;;;5063226;28;19917;-72
2021/03/23 04:44:05;;;;;;;;;;;14.10;62.60;;;;;;5064583;28;19913;-71
2021/03/23 04:46:31;;;;;;;;;;;14.20;62.70;;;;;;5058255;28;20392;-71
2021/03/23 04:48:57;;;;;;;;;;;14.30;62.20;;;;;;5062630;28;19908;-71
2021/03/23 04:51:24;;;;;;;;;;;14.00;62.20;;;;;;5061767;28;20377;-72
2021/03/23 04:53:57;;;;;;;;;;;13.90;63.50;;;;;;5063022;28;19917;-71
2021/03/23 04:56:25;;;;;;;;;;;13.70;62.70;;;;;;5064511;28;20250;-71
2021/03/23 04:58:51;;;;;;;;;;;13.80;63.70;;;;;;5062923;28;19909;-72
2021/03/23 05:01:17;;;;;;;;;;;13.70;63.00;;;;;;5063684;28;20338;-70
2021/03/23 05:03:44;;;;;;;;;;;13.80;62.70;;;;;;5064742;28;19920;-71
2021/03/23 05:06:10;;;;;;;;;;;13.80;61.90;;;;;;5065246;28;19932;-70
2021/03/23 05:08:38;;;;;;;;;;;13.60;63.10;;;;;;5065989;28;19919;-70
2021/03/23 05:11:05;;;;;;;;;;;13.60;62.90;;;;;;5061837;28;19913;-72
2021/03/23 05:13:31;;;;;;;;;;;13.70;63.10;;;;;;5064031;28;19905;-72
2021/03/23 05:15:58;;;;;;;;;;;13.70;63.30;;;;;;5062552;28;19995;-72
2021/03/23 05:18:24;;;;;;;;;;;13.80;62.70;;;;;;5062831;28;19905;-72
2021/03/23 05:20:50;;;;;;;;;;;13.60;62.10;;;;;;5064130;28;19912;-72
2021/03/23 05:23:16;;;;;;;;;;;13.70;63.00;;;;;;5063848;28;19952;-72
2021/03/23 05:25:43;;;;;;;;;;;13.80;62.10;;;;;;5060886;28;19908;-72
2021/03/23 05:28:10;;;;;;;;;;;13.70;62.70;;;;;;5062828;28;19994;-72
2021/03/23 05:30:37;;;;;;;;;;;13.60;62.40;;;;;;5062228;28;20015;-72
2021/03/23 05:33:03;;;;;;;;;;;13.80;62.60;;;;;;5063760;28;20437;-72
2021/03/23 05:35:29;;;;;;;;;;;13.70;62.30;;;;;;5062697;28;20003;-72
2021/03/23 05:37:55;;;;;;;;;;;13.80;62.20;;;;;;5064352;28;19935;-73
2021/03/23 05:40:31;;;;;;;;;;;14.00;62.10;;;;;;5063041;28;19938;-72
2021/03/23 05:43:03;;;;;;;;;;;14.00;61.50;;;;;;5066353;28;19956;-73
2021/03/23 05:45:37;;;;;;;;;;;13.70;62.30;;;;;;5062362;28;19913;-72
2021/03/23 05:48:03;;;;;;;;;;;13.60;63.00;;;;;;5066743;28;20000;-73
2021/03/23 05:50:31;;;;;;;;;;;13.40;63.30;;;;;;5064524;28;19955;-71
2021/03/23 05:53:12;;;;;;;;;;;13.50;62.80;;;;;;5063132;28;19951;-71
2021/03/23 05:55:40;;;;;;;;;;;13.70;62.90;;;;;;5064317;28;19947;-72
2021/03/23 05:58:13;;;;;;;;;;;13.70;62.00;;;;;;5064776;28;20251;-72
2021/03/23 06:00:40;;;;;;;;;;;13.70;62.00;;;;;;5065492;28;19923;-74
2021/03/23 06:03:06;;;;;;;;;;;13.80;61.40;;;;;;5064229;28;20519;-73
2021/03/23 06:05:43;;;;;;;;;;;13.80;61.20;;;;;;5065691;28;19926;-72
2021/03/23 06:08:36;;;;;;;;;;;13.70;61.50;;;;;;5067778;28;20253;-74
2021/03/23 06:11:05;;;;;;;;;;;13.70;61.50;;;;;;5058935;28;19908;-72
2021/03/23 06:13:44;;;;;;;;;;;13.60;61.60;;;;;;5063744;28;19923;-72
2021/03/23 06:16:20;;;;;;;;;;;13.70;61.20;;;;;;5060754;28;20361;-73
2021/03/23 06:18:52;;;;;;;;;;;13.60;61.10;;;;;;5064094;28;20331;-73
2021/03/23 06:21:29;;;;;;;;;;;13.60;61.00;;;;;;5061401;28;19905;-72
2021/03/23 06:24:01;;;;;;;;;;;13.60;60.50;;;;;;5057424;28;19927;-72
2021/03/23 06:26:36;;;;;;;;;;;13.50;60.30;;;;;;5062952;28;19935;-71
2021/03/23 06:29:25;;;;;;;;;;;13.40;60.50;;;;;;5064622;28;19912;-71
2021/03/23 06:31:54;;;;;;;;;;;13.40;60.40;;;;;;5048853;28;19920;-72
2021/03/23 06:34:22;;;;;;;;;;;13.50;59.90;;;;;;5065076;28;19919;-72
2021/03/23 06:36:50;;;;;;;;;;;13.40;60.20;;;;;;5061953;28;20005;-72
2021/03/23 06:39:16;;;;;;;;;;;13.40;60.10;;;;;;5063319;28;19908;-71
2021/03/23 06:41:53;;;;;;;;;;;13.40;60.10;;;;;;5067996;28;19931;-71
2021/03/23 06:44:21;;;;;;;;;;;13.20;60.60;;;;;;5066647;28;19947;-71
2021/03/23 06:46:49;;;;;;;;;;;13.40;60.00;;;;;;5062260;28;19918;-71
2021/03/23 06:49:15;;;;;;;;;;;13.40;59.80;;;;;;5067282;28;19930;-72
2021/03/23 06:52:02;;;;;;;;;;;13.20;60.90;;;;;;5064194;28;19909;-71
2021/03/23 06:54:29;;;;;;;;;;;13.20;60.50;;;;;;5063561;28;20342;-72
2021/03/23 06:57:11;;;;;;;;;;;12.90;61.70;;;;;;5062287;28;20236;-71
2021/03/23 06:59:53;;;;;;;;;;;13.00;61.80;;;;;;5065524;28;19909;-74
2021/03/23 07:02:40;;;;;;;;;;;13.00;62.10;;;;;;5066812;28;20323;-76
2021/03/23 07:05:18;;;;;;;;;;;13.20;62.20;;;;;;5068101;28;19908;-72
2021/03/23 07:07:55;;;;;;;;;;;12.90;62.30;;;;;;5064570;28;19912;-72
2021/03/23 07:10:26;;;;;;;;;;;13.00;63.30;;;;;;5067196;28;19919;-71
2021/03/23 07:12:52;;;;;;;;;;;12.90;62.20;;;;;;5066827;28;19908;-72
2021/03/23 07:15:20;;;;;;;;;;;12.90;62.70;;;;;;5066797;28;19999;-72
2021/03/23 07:17:48;;;;;;;;;;;13.00;62.40;;;;;;5061680;28;20286;-72
2021/03/23 07:20:23;;;;;;;;;;;13.10;63.20;;;;;;5062379;28;19923;-72
2021/03/23 07:22:51;;;;;;;;;;;13.00;62.50;;;;;;5061127;28;19923;-72
2021/03/23 07:25:35;;;;;;;;;;;13.00;63.10;;;;;;5064828;28;19989;-72
2021/03/23 07:28:10;;;;;;;;;;;12.70;62.80;;;;;;5065420;28;19904;-72
2021/03/23 07:30:36;;;;;;;;;;;12.90;63.20;;;;;;5066600;28;19904;-71
2021/03/23 07:33:07;;;;;;;;;;;12.90;63.20;;;;;;5066945;28;20265;-72
2021/03/23 07:35:35;;;;;;;;;;;13.00;62.70;;;;;;5063826;28;20238;-72
2021/03/23 07:38:19;;;;;;;;;;;12.90;63.30;;;;;;5061519;28;20385;-73
2021/03/23 07:40:48;;;;;;;;;;;12.80;63.90;;;;;;5062924;28;19912;-72
2021/03/23 07:43:14;;;;;;;;;;;12.80;64.00;;;;;;5065727;28;19921;-72
2021/03/23 07:46:03;;;;;;;;;;;12.80;63.60;;;;;;5068067;28;19926;-72
2021/03/23 07:48:39;;;;;;;;;;;12.70;64.00;;;;;;5059108;28;19908;-71
2021/03/23 07:51:25;;;;;;;;;;;12.70;63.90;;;;;;5066741;28;19904;-72
2021/03/23 07:53:52;;;;;;;;;;;12.90;63.40;;;;;;5066408;28;19909;-72
2021/03/23 07:56:18;;;;;;;;;;;13.00;62.90;;;;;;5064221;28;20259;-72
2021/03/23 07:59:02;;;;;;;;;;;12.90;63.10;;;;;;5065003;28;19904;-72
2021/03/23 08:01:34;;;;;;;;;;;12.90;62.90;;;;;;5063776;28;19962;-72
2021/03/23 08:04:03;;;;;;;;;;;13.00;63.20;;;;;;5063163;28;20326;-72
2021/03/23 08:06:32;;;;;;;;;;;12.80;63.30;;;;;;5068148;28;19908;-72
2021/03/23 08:08:58;;;;;;;;;;;12.70;63.90;;;;;;5065726;28;19939;-72
2021/03/23 08:11:31;;;;;;;;;;;12.80;63.90;;;;;;5060887;28;19908;-72
2021/03/23 08:14:05;;;;;;;;;;;12.70;63.90;;;;;;5063817;28;19912;-72
2021/03/23 08:16:47;;;;;;;;;;;12.80;63.40;;;;;;5062938;28;19956;-72
2021/03/23 08:19:13;;;;;;;;;;;12.60;64.00;;;;;;5065706;28;19908;-72
2021/03/23 08:21:49;;;;;;;;;;;12.80;63.50;;;;;;5062966;28;19920;-72
2021/03/23 08:24:33;;;;;;;;;;;12.90;63.50;;;;;;5060964;28;20246;-72
2021/03/23 08:27:18;;;;;;;;;;;12.90;63.30;;;;;;5064097;28;19940;-72
2021/03/23 08:30:03;;;;;;;;;;;12.50;64.70;;;;;;5064780;28;19995;-72
2021/03/23 08:32:41;;;;;;;;;;;12.50;65.10;;;;;;5065198;28;19905;-72
2021/03/23 08:35:10;;;;;;;;;;;12.40;65.00;;;;;;5060783;28;19912;-72
2021/03/23 08:37:45;;;;;;;;;;;12.50;64.30;;;;;;5063372;28;19963;-72
2021/03/23 08:40:34;;;;;;;;;;;12.60;63.80;;;;;;5064645;28;20346;-71
2021/03/23 08:43:00;;;;;;;;;;;12.50;64.40;;;;;;5062425;28;19958;-72
2021/03/23 08:45:29;;;;;;;;;;;12.60;64.10;;;;;;5063160;28;19904;-72
2021/03/23 08:48:05;;;;;;;;;;;12.50;64.30;;;;;;5061691;28;19909;-72
2021/03/23 08:50:34;;;;;;;;;;;12.40;64.40;;;;;;5065880;28;19909;-72
2021/03/23 08:53:01;;;;;;;;;;;12.60;64.50;;;;;;5062112;28;19912;-73
2021/03/23 08:55:31;;;;;;;;;;;12.50;63.90;;;;;;5063868;28;19912;-72
2021/03/23 08:58:03;;;;;;;;;;;12.30;64.60;;;;;;5063614;28;19904;-71
2021/03/23 09:00:35;;;;;;;;;;;12.30;64.20;;;;;;5061114;28;19923;-72
2021/03/23 09:03:21;;;;;;;;;;;12.40;64.10;;;;;;5064568;28;20394;-71
2021/03/23 09:05:50;;;;;;;;;;;12.60;63.40;;;;;;5063870;28;20373;-72
2021/03/23 09:08:35;;;;;;;;;;;12.50;63.30;;;;;;5064076;28;20090;-73
2021/03/23 09:11:02;;;;;;;;;;;12.40;63.80;;;;;;5065198;28;19919;-73
2021/03/23 09:13:51;;;;;;;;;;;12.50;64.30;;;;;;5062904;28;20371;-72
2021/03/23 09:19:04;;;;;;;;;;;12.50;63.40;;;;;;5049207;28;20007;-72
2021/03/23 09:22:02;;;;;;;;;;;12.50;63.00;;;;;;5054935;28;19928;-72
2021/03/23 09:24:35;;;;;;;;;;;12.30;63.70;;;;;;5010906;28;20282;-72
2021/03/23 09:27:15;;;;;;;;;;;12.30;63.70;;;;;;5055107;28;19909;-74
2021/03/23 09:29:45;;;;;;;;;;;12.30;63.70;;;;;;5038723;28;19912;-74
2021/03/23 09:32:19;;;;;;;;;;;12.30;63.30;;;;;;5054594;28;20371;-74
2021/03/23 09:35:24;;;;;;;;;;;12.30;63.50;;;;;;5055386;28;19931;-74
2021/03/23 09:37:55;;;;;;;;;;;12.20;63.90;;;;;;5037536;28;19922;-74
2021/03/23 09:40:22;;;;;;;;;;;12.30;64.60;;;;;;5055037;28;20311;-73
2021/03/23 09:42:50;;;;;;;;;;;12.40;64.00;;;;;;5055273;28;20326;-74
2021/03/23 09:45:22;;;;;;;;;;;12.40;63.40;;;;;;5037665;28;19920;-74
2021/03/23 09:47:54;;;;;;;;;;;12.40;63.00;;;;;;5038236;28;19990;-74
2021/03/23 09:50:26;;;;;;;;;;;12.30;63.60;;;;;;5054615;28;19912;-74
2021/03/23 09:53:12;;;;;;;;;;;12.40;63.40;;;;;;5037230;28;19909;-74
2021/03/23 09:55:39;;;;;;;;;;;12.30;63.50;;;;;;5037018;28;19909;-74
2021/03/23 09:58:06;;;;;;;;;;;12.40;63.90;;;;;;5038723;28;20246;-74
2021/03/23 10:00:34;;;;;;;;;;;12.30;63.80;;;;;;5034845;28;19927;-74
2021/03/23 10:03:00;;;;;;;;;;;12.20;64.50;;;;;;5054258;28;20368;-75
2021/03/23 10:05:31;;;;;;;;;;;12.20;63.90;;;;;;5037487;28;19913;-75
2021/03/23 10:08:19;;;;;;;;;;;12.20;64.00;;;;;;5036161;28;19912;-74
2021/03/23 10:10:46;;;;;;;;;;;12.10;65.20;;;;;;5038654;28;20339;-74
2021/03/23 10:13:24;;;;;;;;;;;12.10;65.80;;;;;;5052038;28;19913;-73
2021/03/23 10:15:50;;;;;;;;;;;12.00;65.20;;;;;;5054703;28;20019;-74
2021/03/23 10:18:16;;;;;;;;;;;12.00;65.00;;;;;;5036431;28;20321;-74
2021/03/23 10:20:43;;;;;;;;;;;11.90;64.80;;;;;;5037312;28;19917;-74
2021/03/23 10:23:09;;;;;;;;;;;12.10;64.20;;;;;;5054654;28;19922;-74
2021/03/23 10:25:36;;;;;;;;;;;12.00;64.30;;;;;;5054372;28;19920;-75
2021/03/23 10:28:04;;;;;;;;;;;11.90;65.10;;;;;;5055505;28;19915;-74
2021/03/23 10:30:35;;;;;;;;;;;12.10;64.50;;;;;;5055013;28;19916;-74
2021/03/23 10:33:21;;;;;;;;;;;12.00;65.00;;;;;;5059684;28;19909;-74
2021/03/23 10:35:47;;;;;;;;;;;12.00;65.10;;;;;;5042461;28;19908;-74
2021/03/23 10:38:19;;;;;;;;;;;12.00;65.20;;;;;;5052190;28;19916;-75
2021/03/23 10:40:47;;;;;;;;;;;11.90;65.50;;;;;;5074108;28;20254;-81
2021/03/23 10:43:14;;;;;;;;;;;11.90;64.80;;;;;;5042699;28;19996;-74
2021/03/23 10:45:43;;;;;;;;;;;12.00;64.60;;;;;;5042410;28;19924;-73
2021/03/23 10:48:17;;;;;;;;;;;11.90;65.40;;;;;;5058156;28;19916;-74
2021/03/23 10:50:44;;;;;;;;;;;11.90;65.50;;;;;;5039890;28;19912;-74
2021/03/23 10:53:16;;;;;;;;;;;11.90;65.20;;;;;;5058306;28;20010;-74
2021/03/23 10:55:46;;;;;;;;;;;11.90;64.80;;;;;;5040920;28;19912;-73
2021/03/23 10:58:24;;;;;;;;;;;11.80;65.30;;;;;;5039529;28;19913;-74
2021/03/23 11:01:09;;;;;;;;;;;11.80;65.10;;;;;;5041498;28;20099;-74
2021/03/23 11:03:36;;;;;;;;;;;11.80;64.80;;;;;;5058890;28;20019;-74
2021/03/23 11:06:02;;;;;;;;;;;11.70;65.60;;;;;;5041322;28;19920;-74
2021/03/23 11:08:29;;;;;;;;;;;11.70;64.80;;;;;;5058155;28;19909;-74
2021/03/23 11:10:56;;;;;;;;;;;11.80;64.60;;;;;;5057059;28;19912;-74
2021/03/23 11:13:22;;;;;;;;;;;11.70;64.60;;;;;;5058293;28;19909;-74
2021/03/23 11:15:49;;;;;;;;;;;11.70;64.30;;;;;;5059136;28;19935;-76
2021/03/23 11:18:35;;;;;;;;;;;11.70;64.30;;;;;;5041136;28;19926;-73
2021/03/23 11:21:03;;;;;;;;;;;11.70;63.90;;;;;;5058361;28;20327;-74
2021/03/23 11:23:41;;;;;;;;;;;11.70;64.00;;;;;;5057630;28;19923;-74
2021/03/23 11:26:09;;;;;;;;;;;11.60;64.70;;;;;;5056616;28;19920;-75
2021/03/23 11:28:35;;;;;;;;;;;11.70;63.70;;;;;;5055635;28;20296;-74
2021/03/23 11:31:04;;;;;;;;;;;11.60;63.50;;;;;;5040209;28;19908;-74
2021/03/23 11:33:30;;;;;;;;;;;11.60;63.30;;;;;;5040763;28;19920;-74
2021/03/23 11:35:57;;;;;;;;;;;11.60;63.10;;;;;;5040315;28;19966;-73
2021/03/23 11:38:23;;;;;;;;;;;11.50;62.90;;;;;;5040322;28;19954;-73
2021/03/23 11:40:50;;;;;;;;;;;11.30;62.90;;;;;;5057890;28;19909;-73
2021/03/23 11:43:26;;;;;;;;;;;11.30;63.20;;;;;;5055143;28;19970;-73
2021/03/23 11:45:53;;;;;;;;;;;11.20;63.20;;;;;;5056271;28;19915;-74
2021/03/23 11:48:20;;;;;;;;;;;11.10;63.20;;;;;;5040681;28;19987;-73
2021/03/23 11:50:48;;;;;;;;;;;11.00;63.00;;;;;;5057287;28;20012;-74
2021/03/23 11:53:15;;;;;;;;;;;10.90;63.10;;;;;;5040907;28;19956;-74
2021/03/23 11:55:43;;;;;;;;;;;10.80;63.10;;;;;;5040430;28;19912;-73
2021/03/23 11:58:10;;;;;;;;;;;10.70;63.30;;;;;;5057496;28;19909;-74
2021/03/23 12:00:36;;;;;;;;;;;10.60;63.40;;;;;;5056943;28;19970;-73
2021/03/23 12:03:06;;;;;;;;;;;10.50;63.60;;;;;;5057489;28;19916;-74
2021/03/23 12:05:34;;;;;;;;;;;10.50;63.40;;;;;;5059075;28;19923;-77
2021/03/23 12:08:19;;;;;;;;;;;10.30;63.80;;;;;;5044397;28;19917;-76
2021/03/23 12:10:52;;;;;;;;;;;10.30;64.00;;;;;;5044387;28;19920;-76
2021/03/23 12:13:23;;;;;;;;;;;10.20;64.00;;;;;;5058086;28;20004;-75
2021/03/23 12:16:02;;;;;;;;;;;10.10;63.90;;;;;;5042437;28;19991;-74
2021/03/23 12:18:29;;;;;;;;;;;10.20;63.90;;;;;;5043422;28;20250;-77
2021/03/23 12:20:57;;;;;;;;;;;10.20;63.90;;;;;;5061516;28;19923;-74
2021/03/23 12:23:24;;;;;;;;;;;10.20;64.00;;;;;;5045047;28;19920;-75
2021/03/23 12:25:52;;;;;;;;;;;10.10;64.00;;;;;;5061506;28;19913;-75
2021/03/23 12:28:18;;;;;;;;;;;10.00;64.20;;;;;;5061780;28;19909;-76
2021/03/23 12:30:44;;;;;;;;;;;10.00;64.10;;;;;;5062494;28;19923;-75
2021/03/23 12:33:10;;;;;;;;;;;10.00;64.10;;;;;;5044309;28;20356;-74
2021/03/23 12:35:36;;;;;;;;;;;9.90;63.80;;;;;;5049185;28;19904;-75
2021/03/23 12:38:04;;;;;;;;;;;9.80;64.20;;;;;;5050678;28;19909;-75
2021/03/23 12:40:30;;;;;;;;;;;9.90;64.20;;;;;;5061998;28;19916;-76
2021/03/23 12:42:56;;;;;;;;;;;9.90;64.40;;;;;;5044879;28;19912;-75
2021/03/23 12:45:34;;;;;;;;;;;9.90;64.40;;;;;;5061407;28;19908;-75
2021/03/23 12:48:00;;;;;;;;;;;9.80;64.10;;;;;;5061166;28;19985;-74
2021/03/23 12:50:27;;;;;;;;;;;9.80;64.70;;;;;;5043384;28;20338;-75
2021/03/23 12:52:55;;;;;;;;;;;9.70;64.60;;;;;;5061368;28;19955;-76
2021/03/23 12:55:22;;;;;;;;;;;9.70;64.70;;;;;;5043417;28;19920;-77
2021/03/23 12:57:52;;;;;;;;;;;9.70;64.70;;;;;;5043202;28;20334;-76
2021/03/23 13:00:23;;;;;;;;;;;9.70;64.70;;;;;;5059085;28;20444;-74
2021/03/23 13:02:49;;;;;;;;;;;9.70;65.10;;;;;;5039226;28;19919;-74
2021/03/23 13:05:16;;;;;;;;;;;9.70;65.00;;;;;;5054695;28;19916;-73
2021/03/23 13:07:42;;;;;;;;;;;9.70;65.00;;;;;;5055341;28;19908;-73
2021/03/23 13:10:16;;;;;;;;;;;9.60;65.30;;;;;;5055529;28;19920;-74
2021/03/23 13:12:42;;;;;;;;;;;9.70;65.50;;;;;;5057106;28;20321;-73
2021/03/23 13:15:09;;;;;;;;;;;9.60;65.20;;;;;;5056034;28;19917;-75
2021/03/23 13:17:35;;;;;;;;;;;9.60;65.40;;;;;;5055893;28;20287;-73
2021/03/23 13:20:02;;;;;;;;;;;9.60;65.30;;;;;;5054527;28;19916;-73
2021/03/23 13:22:34;;;;;;;;;;;9.60;65.50;;;;;;5055009;28;19923;-73
2021/03/23 13:25:02;;;;;;;;;;;9.60;65.50;;;;;;5054632;28;19995;-73
2021/03/23 13:27:36;;;;;;;;;;;9.70;65.50;;;;;;5054764;28;19908;-73
2021/03/23 13:30:07;;;;;;;;;;;9.60;65.20;;;;;;5054147;28;19913;-73
2021/03/23 13:32:33;;;;;;;;;;;9.50;65.30;;;;;;5053848;28;19920;-73
2021/03/23 13:34:59;;;;;;;;;;;9.40;65.40;;;;;;5037732;28;19919;-73
2021/03/23 13:37:27;;;;;;;;;;;9.40;65.40;;;;;;5038218;28;19909;-73
2021/03/23 13:39:56;;;;;;;;;;;9.40;65.50;;;;;;5054341;28;19909;-73
2021/03/23 13:42:30;;;;;;;;;;;9.30;65.60;;;;;;5037480;28;20296;-72
2021/03/23 13:45:03;;;;;;;;;;;9.30;65.40;;;;;;5054099;28;19921;-72
2021/03/23 13:47:29;;;;;;;;;;;9.30;65.90;;;;;;5054851;28;19962;-73
2021/03/23 13:49:56;;;;;;;;;;;9.20;65.40;;;;;;5038173;28;19974;-73
2021/03/23 13:52:31;;;;;;;;;;;9.20;65.70;;;;;;5053681;28;19913;-72
2021/03/23 13:54:57;;;;;;;;;;;9.20;65.60;;;;;;5054592;28;19908;-72
2021/03/23 13:57:23;;;;;;;;;;;9.20;65.50;;;;;;5054433;28;19984;-73
2021/03/23 13:59:50;;;;;;;;;;;9.20;65.50;;;;;;5055135;28;19904;-72
2021/03/23 14:02:16;;;;;;;;;;;9.10;65.50;;;;;;5053916;28;19923;-72
2021/03/23 14:04:43;;;;;;;;;;;9.10;65.40;;;;;;5054373;28;19919;-72
2021/03/23 14:07:12;;;;;;;;;;;9.10;65.40;;;;;;5037225;28;19913;-72
2021/03/23 14:09:41;;;;;;;;;;;9.10;65.50;;;;;;5035884;28;19908;-73
2021/03/23 14:12:12;;;;;;;;;;;9.10;65.30;;;;;;5054820;28;20401;-72
2021/03/23 14:14:38;;;;;;;;;;;9.00;65.40;;;;;;5036871;28;19951;-72
2021/03/23 14:17:05;;;;;;;;;;;9.00;65.40;;;;;;5052915;28;19920;-72
2021/03/23 14:19:31;;;;;;;;;;;8.90;65.40;;;;;;5054885;28;20311;-73
2021/03/23 14:21:57;;;;;;;;;;;8.90;65.60;;;;;;5055629;28;19924;-73
2021/03/23 14:24:24;;;;;;;;;;;8.90;65.60;;;;;;5055605;28;19919;-73
2021/03/23 14:26:50;;;;;;;;;;;8.80;65.70;;;;;;5056356;28;19913;-72
2021/03/23 14:29:16;;;;;;;;;;;8.80;65.70;;;;;;5044898;28;19909;-72
2021/03/23 14:31:42;;;;;;;;;;;8.90;65.80;;;;;;5049433;28;19908;-72
2021/03/23 14:34:08;;;;;;;;;;;8.90;65.80;;;;;;5051146;28;19948;-72
2021/03/23 14:36:39;;;;;;;;;;;8.80;65.80;;;;;;5057591;28;19913;-72